sensor_id;sensor_type;location;lat;lon;timestamp;P1;durP1;ratioP1;P2;durP2;ratioP2
15153;SDS011;7677;41.896;25.004;2023-02-19T00:01:30;0.90;;;0.90;;
15153;SDS011;7677;41.896;25.004;2023-02-19T00:04:16;0.90;;;0.90;;
15153;SDS011;7677;41.896;25.004;2023-02-19T00:06:46;2.60;;;0.87;;
15153;SDS011;7677;41.896;25.004;2023-02-19T00:09:14;0.70;;;0.70;;
15153;SDS011;7677;41.896;25.004;2023-02-19T00:11:42;1.00;;;1.00;;
15153;SDS011;7677;41.896;25.004;2023-02-19T00:14:10;0.70;;;0.70;;
15153;SDS011;7677;41.896;25.004;2023-02-19T00:16:58;0.80;;;0.80;;
15153;SDS011;7677;41.896;25.004;2023-02-19T00:19:26;1.13;;;1.13;;
15153;SDS011;7677;41.896;25.004;2023-02-19T00:21:54;0.90;;;0.90;;
15153;SDS011;7677;41.896;25.004;2023-02-19T00:24:23;0.70;;;0.70;;
15153;SDS011;7677;41.896;25.004;2023-02-19T00:26:50;1.43;;;0.93;;
15153;SDS011;7677;41.896;25.004;2023-02-19T00:29:20;0.87;;;0.87;;
15153;SDS011;7677;41.896;25.004;2023-02-19T00:31:48;1.00;;;0.80;;
15153;SDS011;7677;41.896;25.004;2023-02-19T00:34:17;0.70;;;0.70;;
15153;SDS011;7677;41.896;25.004;2023-02-19T00:36:50;0.73;;;0.73;;
15153;SDS011;7677;41.896;25.004;2023-02-19T00:39:17;0.70;;;0.70;;
15153;SDS011;7677;41.896;25.004;2023-02-19T00:41:45;0.80;;;0.80;;
15153;SDS011;7677;41.896;25.004;2023-02-19T00:44:14;0.80;;;0.80;;
15153;SDS011;7677;41.896;25.004;2023-02-19T00:46:45;0.70;;;0.70;;
15153;SDS011;7677;41.896;25.004;2023-02-19T00:49:16;0.77;;;0.77;;
15153;SDS011;7677;41.896;25.004;2023-02-19T00:51:46;0.80;;;0.80;;
15153;SDS011;7677;41.896;25.004;2023-02-19T00:54:13;0.60;;;0.60;;
15153;SDS011;7677;41.896;25.004;2023-02-19T00:56:41;0.70;;;0.70;;
15153;SDS011;7677;41.896;25.004;2023-02-19T00:59:08;0.70;;;0.70;;
15153;SDS011;7677;41.896;25.004;2023-02-19T01:01:36;0.87;;;0.87;;
15153;SDS011;7677;41.896;25.004;2023-02-19T01:04:03;0.87;;;0.77;;
15153;SDS011;7677;41.896;25.004;2023-02-19T01:09:20;0.70;;;0.70;;
15153;SDS011;7677;41.896;25.004;2023-02-19T01:11:47;1.23;;;0.83;;
15153;SDS011;7677;41.896;25.004;2023-02-19T01:14:14;0.80;;;0.80;;
15153;SDS011;7677;41.896;25.004;2023-02-19T01:16:41;0.80;;;0.80;;
15153;SDS011;7677;41.896;25.004;2023-02-19T01:19:12;1.30;;;0.73;;
15153;SDS011;7677;41.896;25.004;2023-02-19T01:21:39;0.93;;;0.93;;
15153;SDS011;7677;41.896;25.004;2023-02-19T01:24:10;2.57;;;0.80;;
15153;SDS011;7677;41.896;25.004;2023-02-19T01:26:37;0.63;;;0.63;;
15153;SDS011;7677;41.896;25.004;2023-02-19T01:29:05;1.90;;;0.80;;
15153;SDS011;7677;41.896;25.004;2023-02-19T01:31:32;0.80;;;0.80;;
15153;SDS011;7677;41.896;25.004;2023-02-19T01:34:09;0.87;;;0.87;;
15153;SDS011;7677;41.896;25.004;2023-02-19T01:36:37;0.70;;;0.70;;
15153;SDS011;7677;41.896;25.004;2023-02-19T01:39:07;0.60;;;0.60;;
15153;SDS011;7677;41.896;25.004;2023-02-19T01:41:50;0.77;;;0.77;;
15153;SDS011;7677;41.896;25.004;2023-02-19T01:47:23;0.90;;;0.90;;
15153;SDS011;7677;41.896;25.004;2023-02-19T01:49:51;0.77;;;0.77;;
15153;SDS011;7677;41.896;25.004;2023-02-19T01:52:20;0.70;;;0.70;;
15153;SDS011;7677;41.896;25.004;2023-02-19T01:54:53;0.70;;;0.70;;
15153;SDS011;7677;41.896;25.004;2023-02-19T01:57:22;0.70;;;0.70;;
15153;SDS011;7677;41.896;25.004;2023-02-19T01:59:54;0.80;;;0.80;;
15153;SDS011;7677;41.896;25.004;2023-02-19T02:02:23;0.90;;;0.87;;
15153;SDS011;7677;41.896;25.004;2023-02-19T02:04:51;0.70;;;0.70;;
15153;SDS011;7677;41.896;25.004;2023-02-19T02:07:18;0.70;;;0.70;;
15153;SDS011;7677;41.896;25.004;2023-02-19T02:10:08;0.53;;;0.53;;
15153;SDS011;7677;41.896;25.004;2023-02-19T02:12:48;0.70;;;0.70;;
15153;SDS011;7677;41.896;25.004;2023-02-19T02:15:18;0.80;;;0.80;;
15153;SDS011;7677;41.896;25.004;2023-02-19T02:17:49;1.50;;;0.90;;
15153;SDS011;7677;41.896;25.004;2023-02-19T02:20:37;1.07;;;1.00;;
15153;SDS011;7677;41.896;25.004;2023-02-19T02:23:19;0.93;;;0.93;;
15153;SDS011;7677;41.896;25.004;2023-02-19T02:26:02;0.90;;;0.90;;
15153;SDS011;7677;41.896;25.004;2023-02-19T02:28:47;0.90;;;0.90;;
15153;SDS011;7677;41.896;25.004;2023-02-19T02:31:29;0.80;;;0.80;;
15153;SDS011;7677;41.896;25.004;2023-02-19T02:34:00;0.80;;;0.80;;
15153;SDS011;7677;41.896;25.004;2023-02-19T02:36:34;1.00;;;1.00;;
15153;SDS011;7677;41.896;25.004;2023-02-19T02:39:03;0.80;;;0.80;;
15153;SDS011;7677;41.896;25.004;2023-02-19T02:41:34;0.90;;;0.90;;
15153;SDS011;7677;41.896;25.004;2023-02-19T02:44:07;1.23;;;0.90;;
15153;SDS011;7677;41.896;25.004;2023-02-19T02:46:37;0.80;;;0.80;;
15153;SDS011;7677;41.896;25.004;2023-02-19T02:49:10;0.87;;;0.87;;
15153;SDS011;7677;41.896;25.004;2023-02-19T02:51:42;1.73;;;1.03;;
15153;SDS011;7677;41.896;25.004;2023-02-19T02:54:11;1.57;;;1.00;;
15153;SDS011;7677;41.896;25.004;2023-02-19T02:56:58;0.70;;;0.70;;
15153;SDS011;7677;41.896;25.004;2023-02-19T02:59:35;1.00;;;1.00;;
15153;SDS011;7677;41.896;25.004;2023-02-19T03:02:06;0.80;;;0.80;;
15153;SDS011;7677;41.896;25.004;2023-02-19T03:04:43;1.00;;;1.00;;
15153;SDS011;7677;41.896;25.004;2023-02-19T03:07:32;1.87;;;1.00;;
15153;SDS011;7677;41.896;25.004;2023-02-19T03:10:03;3.60;;;0.93;;
15153;SDS011;7677;41.896;25.004;2023-02-19T03:12:34;1.10;;;1.00;;
15153;SDS011;7677;41.896;25.004;2023-02-19T03:15:20;1.20;;;1.10;;
15153;SDS011;7677;41.896;25.004;2023-02-19T03:18:09;1.27;;;1.17;;
15153;SDS011;7677;41.896;25.004;2023-02-19T03:20:55;0.97;;;0.90;;
15153;SDS011;7677;41.896;25.004;2023-02-19T03:23:24;1.30;;;1.10;;
15153;SDS011;7677;41.896;25.004;2023-02-19T03:26:09;0.80;;;0.80;;
15153;SDS011;7677;41.896;25.004;2023-02-19T03:28:37;1.27;;;1.13;;
15153;SDS011;7677;41.896;25.004;2023-02-19T03:31:26;1.37;;;0.83;;
15153;SDS011;7677;41.896;25.004;2023-02-19T03:33:58;1.13;;;1.03;;
15153;SDS011;7677;41.896;25.004;2023-02-19T03:36:36;0.87;;;0.87;;
15153;SDS011;7677;41.896;25.004;2023-02-19T03:39:06;0.90;;;0.90;;
15153;SDS011;7677;41.896;25.004;2023-02-19T03:41:34;0.70;;;0.70;;
15153;SDS011;7677;41.896;25.004;2023-02-19T03:44:05;0.73;;;0.73;;
15153;SDS011;7677;41.896;25.004;2023-02-19T03:46:35;0.70;;;0.70;;
15153;SDS011;7677;41.896;25.004;2023-02-19T03:49:12;0.77;;;0.77;;
15153;SDS011;7677;41.896;25.004;2023-02-19T03:51:49;1.00;;;1.00;;
15153;SDS011;7677;41.896;25.004;2023-02-19T03:54:18;0.70;;;0.70;;
15153;SDS011;7677;41.896;25.004;2023-02-19T03:56:51;1.00;;;0.90;;
15153;SDS011;7677;41.896;25.004;2023-02-19T03:59:23;1.00;;;0.80;;
15153;SDS011;7677;41.896;25.004;2023-02-19T04:01:57;1.37;;;1.00;;
15153;SDS011;7677;41.896;25.004;2023-02-19T04:04:30;0.83;;;0.83;;
15153;SDS011;7677;41.896;25.004;2023-02-19T04:06:59;0.80;;;0.80;;
15153;SDS011;7677;41.896;25.004;2023-02-19T04:09:32;0.77;;;0.77;;
15153;SDS011;7677;41.896;25.004;2023-02-19T04:12:01;0.80;;;0.80;;
15153;SDS011;7677;41.896;25.004;2023-02-19T04:14:30;0.90;;;0.90;;
15153;SDS011;7677;41.896;25.004;2023-02-19T04:17:00;1.10;;;1.00;;
15153;SDS011;7677;41.896;25.004;2023-02-19T04:19:31;0.97;;;0.97;;
15153;SDS011;7677;41.896;25.004;2023-02-19T04:22:02;0.90;;;0.90;;
15153;SDS011;7677;41.896;25.004;2023-02-19T04:24:32;0.93;;;0.93;;
15153;SDS011;7677;41.896;25.004;2023-02-19T04:27:01;0.97;;;0.90;;
15153;SDS011;7677;41.896;25.004;2023-02-19T04:29:28;1.17;;;1.10;;
15153;SDS011;7677;41.896;25.004;2023-02-19T04:31:55;0.70;;;0.70;;
15153;SDS011;7677;41.896;25.004;2023-02-19T04:34:23;0.97;;;0.90;;
15153;SDS011;7677;41.896;25.004;2023-02-19T04:36:51;0.87;;;0.87;;
15153;SDS011;7677;41.896;25.004;2023-02-19T04:39:18;0.97;;;0.97;;
15153;SDS011;7677;41.896;25.004;2023-02-19T04:41:45;0.90;;;0.90;;
15153;SDS011;7677;41.896;25.004;2023-02-19T04:44:13;0.80;;;0.80;;
15153;SDS011;7677;41.896;25.004;2023-02-19T04:46:40;1.20;;;1.13;;
15153;SDS011;7677;41.896;25.004;2023-02-19T04:49:07;0.80;;;0.80;;
15153;SDS011;7677;41.896;25.004;2023-02-19T04:51:34;1.10;;;1.00;;
15153;SDS011;7677;41.896;25.004;2023-02-19T04:54:03;0.90;;;0.90;;
15153;SDS011;7677;41.896;25.004;2023-02-19T04:56:30;0.87;;;0.83;;
15153;SDS011;7677;41.896;25.004;2023-02-19T04:59:08;0.93;;;0.93;;
15153;SDS011;7677;41.896;25.004;2023-02-19T05:01:35;1.10;;;1.00;;
15153;SDS011;7677;41.896;25.004;2023-02-19T05:04:03;0.80;;;0.80;;
15153;SDS011;7677;41.896;25.004;2023-02-19T05:06:31;1.00;;;1.00;;
15153;SDS011;7677;41.896;25.004;2023-02-19T05:08:58;1.10;;;1.00;;
15153;SDS011;7677;41.896;25.004;2023-02-19T05:11:26;0.90;;;0.90;;
15153;SDS011;7677;41.896;25.004;2023-02-19T05:13:54;0.80;;;0.80;;
15153;SDS011;7677;41.896;25.004;2023-02-19T05:16:21;0.73;;;0.70;;
15153;SDS011;7677;41.896;25.004;2023-02-19T05:18:48;0.97;;;0.90;;
15153;SDS011;7677;41.896;25.004;2023-02-19T05:21:15;0.70;;;0.70;;
15153;SDS011;7677;41.896;25.004;2023-02-19T05:23:43;0.73;;;0.73;;
15153;SDS011;7677;41.896;25.004;2023-02-19T05:26:11;0.90;;;0.90;;
15153;SDS011;7677;41.896;25.004;2023-02-19T05:28:42;0.90;;;0.90;;
15153;SDS011;7677;41.896;25.004;2023-02-19T05:31:10;0.80;;;0.80;;
15153;SDS011;7677;41.896;25.004;2023-02-19T05:33:37;1.00;;;1.00;;
15153;SDS011;7677;41.896;25.004;2023-02-19T05:36:08;1.10;;;1.10;;
15153;SDS011;7677;41.896;25.004;2023-02-19T05:38:36;0.87;;;0.87;;
15153;SDS011;7677;41.896;25.004;2023-02-19T05:41:07;1.00;;;1.00;;
15153;SDS011;7677;41.896;25.004;2023-02-19T05:43:35;0.90;;;0.90;;
15153;SDS011;7677;41.896;25.004;2023-02-19T05:46:04;1.07;;;0.97;;
15153;SDS011;7677;41.896;25.004;2023-02-19T05:48:32;1.23;;;1.07;;
15153;SDS011;7677;41.896;25.004;2023-02-19T05:51:02;1.00;;;1.00;;
15153;SDS011;7677;41.896;25.004;2023-02-19T05:53:31;2.03;;;1.83;;
15153;SDS011;7677;41.896;25.004;2023-02-19T05:55:58;0.90;;;0.90;;
15153;SDS011;7677;41.896;25.004;2023-02-19T05:58:25;1.00;;;1.00;;
15153;SDS011;7677;41.896;25.004;2023-02-19T06:00:53;1.17;;;1.00;;
15153;SDS011;7677;41.896;25.004;2023-02-19T06:03:22;1.30;;;1.10;;
15153;SDS011;7677;41.896;25.004;2023-02-19T06:05:49;0.90;;;0.90;;
15153;SDS011;7677;41.896;25.004;2023-02-19T06:08:16;0.83;;;0.83;;
15153;SDS011;7677;41.896;25.004;2023-02-19T06:10:43;1.00;;;1.00;;
15153;SDS011;7677;41.896;25.004;2023-02-19T06:13:11;1.37;;;1.13;;
15153;SDS011;7677;41.896;25.004;2023-02-19T06:15:38;1.83;;;0.93;;
15153;SDS011;7677;41.896;25.004;2023-02-19T06:18:05;1.10;;;1.00;;
15153;SDS011;7677;41.896;25.004;2023-02-19T06:20:34;1.33;;;1.20;;
15153;SDS011;7677;41.896;25.004;2023-02-19T06:23:01;2.80;;;1.13;;
15153;SDS011;7677;41.896;25.004;2023-02-19T06:25:28;3.17;;;1.10;;
15153;SDS011;7677;41.896;25.004;2023-02-19T06:27:55;1.40;;;1.30;;
15153;SDS011;7677;41.896;25.004;2023-02-19T06:30:22;1.63;;;1.30;;
15153;SDS011;7677;41.896;25.004;2023-02-19T06:32:50;1.83;;;1.20;;
15153;SDS011;7677;41.896;25.004;2023-02-19T06:35:18;1.23;;;1.00;;
15153;SDS011;7677;41.896;25.004;2023-02-19T06:37:46;1.30;;;1.20;;
15153;SDS011;7677;41.896;25.004;2023-02-19T06:40:14;1.20;;;1.10;;
15153;SDS011;7677;41.896;25.004;2023-02-19T06:42:41;1.10;;;0.97;;
15153;SDS011;7677;41.896;25.004;2023-02-19T06:45:08;1.33;;;1.23;;
15153;SDS011;7677;41.896;25.004;2023-02-19T06:47:36;1.63;;;1.13;;
15153;SDS011;7677;41.896;25.004;2023-02-19T06:50:03;1.03;;;1.03;;
15153;SDS011;7677;41.896;25.004;2023-02-19T06:52:31;1.40;;;1.20;;
15153;SDS011;7677;41.896;25.004;2023-02-19T06:54:59;1.03;;;1.00;;
15153;SDS011;7677;41.896;25.004;2023-02-19T06:57:26;1.33;;;1.23;;
15153;SDS011;7677;41.896;25.004;2023-02-19T06:59:54;1.57;;;1.47;;
15153;SDS011;7677;41.896;25.004;2023-02-19T07:02:21;2.37;;;1.40;;
15153;SDS011;7677;41.896;25.004;2023-02-19T07:04:48;2.30;;;1.17;;
15153;SDS011;7677;41.896;25.004;2023-02-19T07:07:15;1.43;;;1.30;;
15153;SDS011;7677;41.896;25.004;2023-02-19T07:09:42;1.73;;;1.20;;
15153;SDS011;7677;41.896;25.004;2023-02-19T07:12:11;3.60;;;1.53;;
15153;SDS011;7677;41.896;25.004;2023-02-19T07:14:38;1.27;;;1.17;;
15153;SDS011;7677;41.896;25.004;2023-02-19T07:17:05;1.50;;;1.40;;
15153;SDS011;7677;41.896;25.004;2023-02-19T07:19:33;1.57;;;1.43;;
15153;SDS011;7677;41.896;25.004;2023-02-19T07:22:00;1.67;;;1.57;;
15153;SDS011;7677;41.896;25.004;2023-02-19T07:24:27;1.40;;;1.30;;
15153;SDS011;7677;41.896;25.004;2023-02-19T07:26:54;1.50;;;1.40;;
15153;SDS011;7677;41.896;25.004;2023-02-19T07:29:23;2.07;;;1.87;;
15153;SDS011;7677;41.896;25.004;2023-02-19T07:31:50;1.13;;;1.10;;
15153;SDS011;7677;41.896;25.004;2023-02-19T07:34:17;1.67;;;1.50;;
15153;SDS011;7677;41.896;25.004;2023-02-19T07:36:45;2.50;;;2.13;;
15153;SDS011;7677;41.896;25.004;2023-02-19T07:39:13;3.37;;;2.20;;
15153;SDS011;7677;41.896;25.004;2023-02-19T07:41:40;2.13;;;1.87;;
15153;SDS011;7677;41.896;25.004;2023-02-19T07:44:07;2.10;;;1.93;;
15153;SDS011;7677;41.896;25.004;2023-02-19T07:46:39;3.17;;;2.30;;
15153;SDS011;7677;41.896;25.004;2023-02-19T07:49:06;3.50;;;2.80;;
15153;SDS011;7677;41.896;25.004;2023-02-19T07:51:33;5.23;;;2.43;;
15153;SDS011;7677;41.896;25.004;2023-02-19T07:54:00;3.87;;;2.70;;
15153;SDS011;7677;41.896;25.004;2023-02-19T07:56:28;2.50;;;2.20;;
15153;SDS011;7677;41.896;25.004;2023-02-19T07:58:55;2.63;;;2.00;;
15153;SDS011;7677;41.896;25.004;2023-02-19T08:01:22;2.30;;;2.00;;
15153;SDS011;7677;41.896;25.004;2023-02-19T08:04:12;2.33;;;1.90;;
15153;SDS011;7677;41.896;25.004;2023-02-19T08:06:38;4.97;;;3.53;;
15153;SDS011;7677;41.896;25.004;2023-02-19T08:09:06;6.50;;;2.67;;
15153;SDS011;7677;41.896;25.004;2023-02-19T08:11:34;4.17;;;3.40;;
15153;SDS011;7677;41.896;25.004;2023-02-19T08:14:23;4.60;;;3.37;;
15153;SDS011;7677;41.896;25.004;2023-02-19T08:16:51;3.77;;;2.60;;
15153;SDS011;7677;41.896;25.004;2023-02-19T08:19:20;2.20;;;2.10;;
15153;SDS011;7677;41.896;25.004;2023-02-19T08:21:47;3.07;;;2.23;;
15153;SDS011;7677;41.896;25.004;2023-02-19T08:24:15;3.27;;;2.00;;
15153;SDS011;7677;41.896;25.004;2023-02-19T08:26:42;2.53;;;2.33;;
15153;SDS011;7677;41.896;25.004;2023-02-19T08:29:09;3.37;;;2.27;;
15153;SDS011;7677;41.896;25.004;2023-02-19T08:31:36;2.70;;;2.43;;
15153;SDS011;7677;41.896;25.004;2023-02-19T08:34:03;3.37;;;2.80;;
15153;SDS011;7677;41.896;25.004;2023-02-19T08:36:32;7.40;;;2.07;;
15153;SDS011;7677;41.896;25.004;2023-02-19T08:38:59;2.97;;;2.30;;
15153;SDS011;7677;41.896;25.004;2023-02-19T08:41:26;5.47;;;2.73;;
15153;SDS011;7677;41.896;25.004;2023-02-19T08:43:54;3.50;;;2.87;;
15153;SDS011;7677;41.896;25.004;2023-02-19T08:46:21;5.53;;;3.00;;
15153;SDS011;7677;41.896;25.004;2023-02-19T08:48:49;4.17;;;2.93;;
15153;SDS011;7677;41.896;25.004;2023-02-19T08:51:22;5.10;;;4.03;;
15153;SDS011;7677;41.896;25.004;2023-02-19T08:53:51;3.70;;;2.73;;
15153;SDS011;7677;41.896;25.004;2023-02-19T08:56:18;4.77;;;3.20;;
15153;SDS011;7677;41.896;25.004;2023-02-19T08:58:45;4.20;;;2.80;;
15153;SDS011;7677;41.896;25.004;2023-02-19T09:01:13;3.47;;;2.70;;
15153;SDS011;7677;41.896;25.004;2023-02-19T09:03:43;4.43;;;2.67;;
15153;SDS011;7677;41.896;25.004;2023-02-19T09:06:12;8.53;;;4.87;;
15153;SDS011;7677;41.896;25.004;2023-02-19T09:08:41;3.27;;;2.63;;
15153;SDS011;7677;41.896;25.004;2023-02-19T09:11:09;11.13;;;3.20;;
15153;SDS011;7677;41.896;25.004;2023-02-19T09:13:37;4.30;;;3.43;;
15153;SDS011;7677;41.896;25.004;2023-02-19T09:16:07;5.27;;;2.60;;
15153;SDS011;7677;41.896;25.004;2023-02-19T09:18:34;2.90;;;2.40;;
15153;SDS011;7677;41.896;25.004;2023-02-19T09:21:03;3.30;;;2.33;;
15153;SDS011;7677;41.896;25.004;2023-02-19T09:23:31;4.03;;;3.50;;
15153;SDS011;7677;41.896;25.004;2023-02-19T09:25:58;2.50;;;2.13;;
15153;SDS011;7677;41.896;25.004;2023-02-19T09:28:28;2.97;;;2.33;;
15153;SDS011;7677;41.896;25.004;2023-02-19T09:30:56;2.93;;;2.37;;
15153;SDS011;7677;41.896;25.004;2023-02-19T09:33:23;2.53;;;2.33;;
15153;SDS011;7677;41.896;25.004;2023-02-19T09:35:50;6.50;;;2.43;;
15153;SDS011;7677;41.896;25.004;2023-02-19T09:38:17;6.90;;;4.37;;
15153;SDS011;7677;41.896;25.004;2023-02-19T09:40:44;4.63;;;3.50;;
15153;SDS011;7677;41.896;25.004;2023-02-19T09:43:14;4.23;;;3.40;;
15153;SDS011;7677;41.896;25.004;2023-02-19T09:45:44;4.63;;;2.77;;
15153;SDS011;7677;41.896;25.004;2023-02-19T09:48:12;4.00;;;2.70;;
15153;SDS011;7677;41.896;25.004;2023-02-19T09:50:40;4.43;;;3.47;;
15153;SDS011;7677;41.896;25.004;2023-02-19T09:53:11;6.13;;;3.80;;
15153;SDS011;7677;41.896;25.004;2023-02-19T09:55:41;2.63;;;2.43;;
15153;SDS011;7677;41.896;25.004;2023-02-19T09:58:15;6.73;;;2.33;;
15153;SDS011;7677;41.896;25.004;2023-02-19T10:00:50;4.47;;;2.67;;
15153;SDS011;7677;41.896;25.004;2023-02-19T10:03:20;2.97;;;2.37;;
15153;SDS011;7677;41.896;25.004;2023-02-19T10:05:52;4.80;;;3.53;;
15153;SDS011;7677;41.896;25.004;2023-02-19T10:08:20;3.93;;;3.07;;
15153;SDS011;7677;41.896;25.004;2023-02-19T10:10:47;5.17;;;3.20;;
15153;SDS011;7677;41.896;25.004;2023-02-19T10:13:17;2.97;;;2.60;;
15153;SDS011;7677;41.896;25.004;2023-02-19T10:15:46;4.90;;;3.53;;
15153;SDS011;7677;41.896;25.004;2023-02-19T10:18:17;3.83;;;2.40;;
15153;SDS011;7677;41.896;25.004;2023-02-19T10:20:46;4.80;;;3.80;;
15153;SDS011;7677;41.896;25.004;2023-02-19T10:23:14;35.57;;;19.30;;
15153;SDS011;7677;41.896;25.004;2023-02-19T10:25:43;7.13;;;5.17;;
15153;SDS011;7677;41.896;25.004;2023-02-19T10:28:13;6.13;;;3.70;;
15153;SDS011;7677;41.896;25.004;2023-02-19T10:30:43;9.67;;;5.40;;
15153;SDS011;7677;41.896;25.004;2023-02-19T10:33:11;7.23;;;4.57;;
15153;SDS011;7677;41.896;25.004;2023-02-19T10:35:51;4.97;;;3.87;;
15153;SDS011;7677;41.896;25.004;2023-02-19T10:38:21;6.77;;;4.23;;
15153;SDS011;7677;41.896;25.004;2023-02-19T10:40:56;7.37;;;5.17;;
15153;SDS011;7677;41.896;25.004;2023-02-19T10:43:31;2.70;;;2.30;;
15153;SDS011;7677;41.896;25.004;2023-02-19T10:46:03;9.30;;;5.90;;
15153;SDS011;7677;41.896;25.004;2023-02-19T10:48:33;8.87;;;3.13;;
15153;SDS011;7677;41.896;25.004;2023-02-19T10:51:03;19.87;;;12.33;;
15153;SDS011;7677;41.896;25.004;2023-02-19T10:53:40;36.07;;;18.70;;
15153;SDS011;7677;41.896;25.004;2023-02-19T10:56:09;3.97;;;3.00;;
15153;SDS011;7677;41.896;25.004;2023-02-19T10:58:38;7.37;;;5.03;;
15153;SDS011;7677;41.896;25.004;2023-02-19T11:01:13;3.47;;;2.87;;
15153;SDS011;7677;41.896;25.004;2023-02-19T11:03:43;4.87;;;3.67;;
15153;SDS011;7677;41.896;25.004;2023-02-19T11:06:13;8.60;;;5.93;;
15153;SDS011;7677;41.896;25.004;2023-02-19T11:08:45;2.77;;;2.57;;
15153;SDS011;7677;41.896;25.004;2023-02-19T11:14:11;2.77;;;2.17;;
15153;SDS011;7677;41.896;25.004;2023-02-19T11:16:41;3.00;;;2.13;;
15153;SDS011;7677;41.896;25.004;2023-02-19T11:19:20;2.77;;;2.43;;
15153;SDS011;7677;41.896;25.004;2023-02-19T11:21:51;3.70;;;3.00;;
15153;SDS011;7677;41.896;25.004;2023-02-19T11:24:23;19.80;;;9.40;;
15153;SDS011;7677;41.896;25.004;2023-02-19T11:26:54;16.93;;;6.47;;
15153;SDS011;7677;41.896;25.004;2023-02-19T11:29:22;6.17;;;4.23;;
15153;SDS011;7677;41.896;25.004;2023-02-19T11:31:53;4.17;;;2.70;;
15153;SDS011;7677;41.896;25.004;2023-02-19T11:34:24;5.40;;;2.40;;
15153;SDS011;7677;41.896;25.004;2023-02-19T11:37:08;3.40;;;2.60;;
15153;SDS011;7677;41.896;25.004;2023-02-19T11:39:37;3.10;;;2.67;;
15153;SDS011;7677;41.896;25.004;2023-02-19T11:42:15;2.57;;;2.37;;
15153;SDS011;7677;41.896;25.004;2023-02-19T11:44:53;3.30;;;2.73;;
15153;SDS011;7677;41.896;25.004;2023-02-19T11:50:32;2.97;;;2.67;;
15153;SDS011;7677;41.896;25.004;2023-02-19T11:53:15;3.38;;;3.03;;
15153;SDS011;7677;41.896;25.004;2023-02-19T11:55:50;3.50;;;2.80;;
15153;SDS011;7677;41.896;25.004;2023-02-19T11:58:34;5.43;;;3.53;;
15153;SDS011;7677;41.896;25.004;2023-02-19T12:01:22;6.63;;;4.32;;
15153;SDS011;7677;41.896;25.004;2023-02-19T12:03:54;5.07;;;3.33;;
15153;SDS011;7677;41.896;25.004;2023-02-19T12:06:30;6.15;;;3.67;;
15153;SDS011;7677;41.896;25.004;2023-02-19T12:09:16;4.90;;;3.45;;
15153;SDS011;7677;41.896;25.004;2023-02-19T12:12:08;6.85;;;4.72;;
15153;SDS011;7677;41.896;25.004;2023-02-19T12:14:50;3.50;;;2.90;;
15153;SDS011;7677;41.896;25.004;2023-02-19T12:17:36;4.90;;;3.35;;
15153;SDS011;7677;41.896;25.004;2023-02-19T12:20:14;4.85;;;3.60;;
15153;SDS011;7677;41.896;25.004;2023-02-19T12:22:46;3.90;;;3.10;;
15153;SDS011;7677;41.896;25.004;2023-02-19T12:25:20;3.28;;;2.90;;
15153;SDS011;7677;41.896;25.004;2023-02-19T12:30:56;4.85;;;3.50;;
15153;SDS011;7677;41.896;25.004;2023-02-19T12:33:41;5.68;;;3.22;;
15153;SDS011;7677;41.896;25.004;2023-02-19T12:36:22;4.97;;;3.67;;
15153;SDS011;7677;41.896;25.004;2023-02-19T12:38:53;7.18;;;4.57;;
15153;SDS011;7677;41.896;25.004;2023-02-19T12:41:28;10.98;;;3.47;;
15153;SDS011;7677;41.896;25.004;2023-02-19T12:44:04;3.78;;;3.17;;
15153;SDS011;7677;41.896;25.004;2023-02-19T12:46:35;5.68;;;2.90;;
15153;SDS011;7677;41.896;25.004;2023-02-19T12:49:05;4.15;;;2.95;;
15153;SDS011;7677;41.896;25.004;2023-02-19T12:51:40;4.55;;;3.42;;
15153;SDS011;7677;41.896;25.004;2023-02-19T12:54:12;6.75;;;4.30;;
15153;SDS011;7677;41.896;25.004;2023-02-19T12:56:45;17.90;;;7.47;;
15153;SDS011;7677;41.896;25.004;2023-02-19T12:59:18;13.57;;;7.10;;
15153;SDS011;7677;41.896;25.004;2023-02-19T13:01:48;7.70;;;4.65;;
15153;SDS011;7677;41.896;25.004;2023-02-19T13:04:21;4.80;;;3.10;;
15153;SDS011;7677;41.896;25.004;2023-02-19T13:06:52;2.45;;;2.25;;
15153;SDS011;7677;41.896;25.004;2023-02-19T13:09:24;4.07;;;2.28;;
15153;SDS011;7677;41.896;25.004;2023-02-19T13:11:57;5.25;;;2.90;;
15153;SDS011;7677;41.896;25.004;2023-02-19T13:14:44;4.43;;;3.30;;
15153;SDS011;7677;41.896;25.004;2023-02-19T13:17:18;6.47;;;3.83;;
15153;SDS011;7677;41.896;25.004;2023-02-19T13:19:49;21.60;;;11.73;;
15153;SDS011;7677;41.896;25.004;2023-02-19T13:22:21;16.45;;;9.35;;
15153;SDS011;7677;41.896;25.004;2023-02-19T13:25:10;17.25;;;7.53;;
15153;SDS011;7677;41.896;25.004;2023-02-19T13:27:44;12.65;;;5.88;;
15153;SDS011;7677;41.896;25.004;2023-02-19T13:30:39;4.00;;;3.30;;
15153;SDS011;7677;41.896;25.004;2023-02-19T13:33:29;6.63;;;3.78;;
15153;SDS011;7677;41.896;25.004;2023-02-19T13:36:03;8.68;;;4.57;;
15153;SDS011;7677;41.896;25.004;2023-02-19T13:38:38;3.97;;;3.58;;
15153;SDS011;7677;41.896;25.004;2023-02-19T13:41:15;4.50;;;3.65;;
15153;SDS011;7677;41.896;25.004;2023-02-19T13:43:45;3.70;;;3.00;;
15153;SDS011;7677;41.896;25.004;2023-02-19T13:46:18;2.45;;;2.25;;
15153;SDS011;7677;41.896;25.004;2023-02-19T13:48:45;4.70;;;2.90;;
15153;SDS011;7677;41.896;25.004;2023-02-19T13:54:22;8.82;;;3.53;;
15153;SDS011;7677;41.896;25.004;2023-02-19T13:59:56;5.32;;;3.70;;
15153;SDS011;7677;41.896;25.004;2023-02-19T14:02:26;3.67;;;3.05;;
15153;SDS011;7677;41.896;25.004;2023-02-19T14:04:58;4.82;;;3.80;;
15153;SDS011;7677;41.896;25.004;2023-02-19T14:16:28;3.38;;;2.88;;
15153;SDS011;7677;41.896;25.004;2023-02-19T14:19:12;6.87;;;4.33;;
15153;SDS011;7677;41.896;25.004;2023-02-19T14:21:45;4.63;;;3.80;;
15153;SDS011;7677;41.896;25.004;2023-02-19T14:24:13;5.03;;;3.30;;
15153;SDS011;7677;41.896;25.004;2023-02-19T14:26:40;3.83;;;2.80;;
15153;SDS011;7677;41.896;25.004;2023-02-19T14:29:08;4.90;;;3.90;;
15153;SDS011;7677;41.896;25.004;2023-02-19T14:31:38;3.23;;;2.90;;
15153;SDS011;7677;41.896;25.004;2023-02-19T14:34:12;3.93;;;2.57;;
15153;SDS011;7677;41.896;25.004;2023-02-19T14:36:43;2.77;;;2.50;;
15153;SDS011;7677;41.896;25.004;2023-02-19T14:39:16;3.47;;;3.03;;
15153;SDS011;7677;41.896;25.004;2023-02-19T14:41:46;6.47;;;3.40;;
15153;SDS011;7677;41.896;25.004;2023-02-19T14:44:15;9.57;;;3.40;;
15153;SDS011;7677;41.896;25.004;2023-02-19T14:46:47;3.80;;;3.13;;
15153;SDS011;7677;41.896;25.004;2023-02-19T14:49:19;4.70;;;3.27;;
15153;SDS011;7677;41.896;25.004;2023-02-19T14:51:56;3.90;;;2.63;;
15153;SDS011;7677;41.896;25.004;2023-02-19T14:54:32;5.33;;;3.10;;
15153;SDS011;7677;41.896;25.004;2023-02-19T14:57:09;4.47;;;2.53;;
15153;SDS011;7677;41.896;25.004;2023-02-19T14:59:38;2.57;;;2.37;;
15153;SDS011;7677;41.896;25.004;2023-02-19T15:02:14;2.43;;;2.23;;
15153;SDS011;7677;41.896;25.004;2023-02-19T15:04:45;5.87;;;2.30;;
15153;SDS011;7677;41.896;25.004;2023-02-19T15:07:12;2.20;;;2.00;;
15153;SDS011;7677;41.896;25.004;2023-02-19T15:09:43;2.80;;;2.13;;
15153;SDS011;7677;41.896;25.004;2023-02-19T15:12:24;2.00;;;1.80;;
15153;SDS011;7677;41.896;25.004;2023-02-19T15:14:54;6.03;;;2.00;;
15153;SDS011;7677;41.896;25.004;2023-02-19T15:17:24;3.40;;;1.67;;
15153;SDS011;7677;41.896;25.004;2023-02-19T15:19:53;2.17;;;1.97;;
15153;SDS011;7677;41.896;25.004;2023-02-19T15:22:21;3.00;;;2.70;;
15153;SDS011;7677;41.896;25.004;2023-02-19T15:24:52;10.03;;;7.67;;
15153;SDS011;7677;41.896;25.004;2023-02-19T15:27:20;8.87;;;7.97;;
15153;SDS011;7677;41.896;25.004;2023-02-19T15:29:55;4.53;;;3.73;;
15153;SDS011;7677;41.896;25.004;2023-02-19T15:32:23;2.03;;;1.87;;
15153;SDS011;7677;41.896;25.004;2023-02-19T15:34:53;1.80;;;1.70;;
15153;SDS011;7677;41.896;25.004;2023-02-19T15:37:22;2.13;;;1.77;;
15153;SDS011;7677;41.896;25.004;2023-02-19T15:39:50;3.10;;;1.80;;
15153;SDS011;7677;41.896;25.004;2023-02-19T15:42:19;1.90;;;1.77;;